Time;durP1;ratioP1;P1;durP2;ratioP2;P2;SDS_P1;SDS_P2;PMS_P1;PMS_P2;Temp;Humidity;BMP_temperature;BMP_pressure;BME280_temperature;BME280_humidity;BME280_pressure;Samples;Min_cycle;Max_cycle;Signal;HPM_P1;HPM_P2
2023/08/31 00:01:14;;;;;;;4.43;1.60;;;17.00;66.00;;;;;;5018859;28;20068;-72
2023/08/31 00:03:40;;;;;;;5.18;2.42;;;17.00;66.00;;;;;;5019538;28;20037;-72
2023/08/31 00:06:07;;;;;;;3.05;1.75;;;17.00;66.00;;;;;;5020278;28;20037;-71
2023/08/31 00:08:35;;;;;;;4.18;1.77;;;16.90;65.90;;;;;;5012857;28;20029;-71
2023/08/31 00:11:01;;;;;;;5.15;2.20;;;16.90;66.00;;;;;;5011020;28;20393;-72
2023/08/31 00:13:27;;;;;;;4.60;1.80;;;16.90;66.00;;;;;;5014466;28;20042;-71
2023/08/31 00:15:57;;;;;;;6.78;1.73;;;16.90;66.10;;;;;;5011764;28;20037;-71
2023/08/31 00:18:24;;;;;;;5.90;1.95;;;16.80;65.90;;;;;;5020387;28;20469;-72
2023/08/31 00:20:51;;;;;;;8.80;3.17;;;16.80;66.00;;;;;;5016042;28;20547;-71
2023/08/31 00:23:18;;;;;;;5.88;2.15;;;16.80;66.00;;;;;;5010280;28;20466;-71
2023/08/31 00:25:48;;;;;;;4.30;2.30;;;16.80;66.00;;;;;;5018510;28;20030;-70
2023/08/31 00:28:18;;;;;;;6.50;2.03;;;16.80;66.10;;;;;;5019206;28;20033;-71
2023/08/31 00:30:48;;;;;;;3.42;1.75;;;16.70;65.90;;;;;;5032949;28;20025;-71
2023/08/31 00:33:16;;;;;;;3.38;2.08;;;16.70;66.00;;;;;;5020080;28;20050;-72
2023/08/31 00:35:43;;;;;;;2.70;2.17;;;16.60;65.80;;;;;;5020362;28;20586;-71
2023/08/31 00:38:11;;;;;;;4.93;2.50;;;16.60;65.80;;;;;;5012582;28;20612;-72
2023/08/31 00:40:47;;;;;;;4.47;2.42;;;16.60;65.90;;;;;;5016830;28;20042;-72
2023/08/31 00:43:17;;;;;;;5.18;1.67;;;16.50;65.80;;;;;;5016743;28;20330;-71
2023/08/31 00:45:45;;;;;;;5.38;2.30;;;16.50;65.80;;;;;;5016123;28;20060;-71
2023/08/31 00:48:14;;;;;;;4.45;1.58;;;16.50;65.90;;;;;;5018402;28;20060;-72
2023/08/31 00:50:40;;;;;;;2.40;1.90;;;16.50;65.90;;;;;;5018545;28;20140;-72
2023/08/31 00:53:07;;;;;;;5.00;1.85;;;16.40;65.70;;;;;;5020041;28;20560;-72
2023/08/31 00:55:33;;;;;;;3.65;1.80;;;16.40;65.70;;;;;;5018936;28;20038;-72
2023/08/31 00:58:00;;;;;;;3.15;1.77;;;16.40;65.70;;;;;;5017506;28;20541;-72
2023/08/31 01:00:48;;;;;;;2.65;1.40;;;16.40;65.70;;;;;;5015524;28;20033;-72
2023/08/31 01:03:41;;;;;;;2.38;1.80;;;16.30;65.70;;;;;;4998981;28;20112;-71
2023/08/31 01:06:17;;;;;;;5.97;2.22;;;16.30;65.70;;;;;;5018307;28;20045;-71
2023/08/31 01:08:57;;;;;;;3.88;2.13;;;16.30;65.60;;;;;;5018555;28;20033;-71
2023/08/31 01:11:49;;;;;;;5.82;1.90;;;16.30;65.70;;;;;;5013927;28;20400;-72
2023/08/31 01:14:21;;;;;;;5.43;2.00;;;16.20;65.60;;;;;;5024516;28;20045;-72
2023/08/31 01:16:49;;;;;;;7.03;2.80;;;16.20;65.50;;;;;;5014489;28;20045;-71
2023/08/31 01:19:43;;;;;;;4.40;1.60;;;16.20;65.50;;;;;;5016052;28;20276;-72
2023/08/31 01:22:25;;;;;;;10.77;2.10;;;16.20;65.60;;;;;;5027072;28;20061;-72
2023/08/31 01:24:52;;;;;;;7.97;2.53;;;16.20;65.70;;;;;;5021852;28;20038;-72
2023/08/31 01:27:18;;;;;;;7.85;2.20;;;16.20;65.60;;;;;;5021164;28;20033;-71
2023/08/31 01:29:45;;;;;;;9.05;2.90;;;16.20;65.70;;;;;;5018934;28;20037;-71
2023/08/31 01:32:12;;;;;;;6.78;2.38;;;16.20;65.70;;;;;;5019295;28;20037;-71
2023/08/31 01:34:39;;;;;;;4.50;2.13;;;16.10;65.50;;;;;;5019133;28;20076;-73
2023/08/31 01:37:25;;;;;;;5.38;1.90;;;16.10;65.60;;;;;;5013042;28;20061;-69
2023/08/31 01:40:03;;;;;;;5.05;2.05;;;16.10;65.70;;;;;;5014856;28;20511;-69
2023/08/31 01:42:31;;;;;;;6.80;3.28;;;16.10;65.60;;;;;;4996284;28;20070;-70
2023/08/31 01:44:58;;;;;;;5.03;2.15;;;16.10;65.60;;;;;;5014864;28;20485;-70
2023/08/31 01:47:25;;;;;;;4.28;1.48;;;16.10;65.60;;;;;;5018028;28;20029;-70
2023/08/31 01:49:52;;;;;;;3.08;2.03;;;16.10;66.20;;;;;;5018513;28;20420;-71
2023/08/31 01:52:18;;;;;;;5.13;1.90;;;16.10;65.70;;;;;;5020864;28;20445;-70
2023/08/31 01:54:44;;;;;;;4.55;1.88;;;16.10;65.70;;;;;;5019804;28;20029;-70
2023/08/31 01:57:11;;;;;;;6.10;2.17;;;16.10;65.70;;;;;;5018964;28;20033;-72
2023/08/31 01:59:56;;;;;;;4.47;2.15;;;16.10;65.70;;;;;;5016088;28;20040;-71
2023/08/31 02:02:22;;;;;;;5.15;2.00;;;16.20;65.90;;;;;;5018746;28;20392;-70
2023/08/31 02:04:50;;;;;;;3.38;1.52;;;16.10;65.70;;;;;;5019544;28;20508;-71
2023/08/31 02:07:16;;;;;;;5.53;2.75;;;16.10;65.70;;;;;;5020017;28;20314;-70
2023/08/31 02:09:42;;;;;;;2.80;1.88;;;16.10;65.70;;;;;;5015856;28;20078;-72
2023/08/31 02:12:09;;;;;;;5.28;1.98;;;16.10;65.70;;;;;;5016443;28;20436;-72
2023/08/31 02:14:36;;;;;;;3.55;2.10;;;16.10;65.70;;;;;;5013105;28;20059;-70
2023/08/31 02:17:03;;;;;;;11.15;3.05;;;16.10;65.80;;;;;;5013108;28;20128;-69
2023/08/31 02:19:28;;;;;;;3.92;2.05;;;16.10;65.70;;;;;;5013772;28;20792;-70
2023/08/31 02:21:54;;;;;;;2.58;1.80;;;16.10;65.80;;;;;;5012222;28;20391;-70
2023/08/31 02:24:20;;;;;;;7.60;2.13;;;16.10;65.80;;;;;;5007998;28;20061;-70
2023/08/31 02:26:48;;;;;;;5.93;1.60;;;16.10;65.90;;;;;;5014037;28;20124;-69
2023/08/31 02:29:14;;;;;;;2.83;1.45;;;16.10;65.80;;;;;;5010290;28;20033;-69
2023/08/31 02:31:41;;;;;;;4.75;2.30;;;16.10;65.90;;;;;;5014469;28;20437;-70
2023/08/31 02:34:07;;;;;;;3.22;1.65;;;16.10;65.90;;;;;;5011715;28;20275;-70
2023/08/31 02:36:33;;;;;;;2.38;1.63;;;16.10;65.90;;;;;;5020300;28;20572;-70
2023/08/31 02:38:59;;;;;;;3.78;1.92;;;16.10;65.90;;;;;;5016102;28;20044;-71
2023/08/31 02:41:25;;;;;;;3.42;1.80;;;16.10;66.00;;;;;;5006703;28;20080;-71
2023/08/31 02:43:52;;;;;;;7.07;2.55;;;16.10;66.00;;;;;;5014680;28;20092;-72
2023/08/31 02:46:19;;;;;;;4.43;1.63;;;16.00;65.80;;;;;;5014555;28;20066;-71
2023/08/31 02:48:45;;;;;;;2.30;1.60;;;16.00;65.80;;;;;;5019141;28;20311;-72
2023/08/31 02:51:11;;;;;;;3.45;1.50;;;16.00;65.80;;;;;;5014140;28;20307;-71
2023/08/31 02:53:38;;;;;;;2.22;1.50;;;16.00;65.90;;;;;;5015068;28;20045;-70
2023/08/31 02:56:04;;;;;;;3.85;1.98;;;16.00;65.90;;;;;;5019841;28;20040;-70
2023/08/31 02:58:31;;;;;;;3.40;2.08;;;16.00;65.90;;;;;;5014793;28;20088;-70
2023/08/31 03:01:11;;;;;;;2.10;1.65;;;16.00;66.00;;;;;;5000775;28;20029;-70
2023/08/31 03:03:40;;;;;;;7.05;2.10;;;16.00;66.10;;;;;;5019502;28;20026;-72
2023/08/31 03:06:08;;;;;;;4.88;2.10;;;16.00;65.90;;;;;;5001822;28;20473;-71
2023/08/31 03:08:34;;;;;;;4.97;1.73;;;15.90;66.30;;;;;;5021242;28;20030;-71
2023/08/31 03:11:01;;;;;;;3.65;2.35;;;15.90;65.80;;;;;;5016443;28;20116;-71
2023/08/31 03:13:27;;;;;;;3.80;2.10;;;15.90;65.80;;;;;;5017680;28;20779;-71
2023/08/31 03:15:53;;;;;;;5.28;2.83;;;15.90;65.80;;;;;;5016637;28;20029;-71
2023/08/31 03:18:20;;;;;;;3.33;2.10;;;15.90;65.80;;;;;;5024076;28;20055;-71
2023/08/31 03:20:47;;;;;;;2.75;1.45;;;15.90;65.80;;;;;;5006562;28;20045;-71
2023/08/31 03:23:13;;;;;;;4.03;1.98;;;15.90;65.80;;;;;;5012643;28;20036;-71
2023/08/31 03:25:39;;;;;;;4.88;2.78;;;15.90;65.80;;;;;;5019256;28;20122;-71
2023/08/31 03:28:07;;;;;;;4.47;1.63;;;15.90;65.90;;;;;;5018462;28;20084;-71
2023/08/31 03:30:33;;;;;;;5.22;2.83;;;15.90;65.90;;;;;;5015741;28;20166;-71
2023/08/31 03:33:00;;;;;;;2.60;1.60;;;15.90;65.90;;;;;;5016681;28;20081;-71
2023/08/31 03:35:28;;;;;;;3.80;1.90;;;15.90;65.90;;;;;;5021975;28;20108;-71
2023/08/31 03:38:06;;;;;;;3.33;2.30;;;15.90;66.00;;;;;;5015765;28;20041;-71
2023/08/31 03:40:34;;;;;;;4.65;2.20;;;15.80;65.80;;;;;;5021914;28;20037;-71
2023/08/31 03:43:00;;;;;;;3.47;1.77;;;15.90;66.00;;;;;;5013942;28;20080;-70
2023/08/31 03:45:26;;;;;;;5.32;2.05;;;15.90;66.10;;;;;;5011509;28;20033;-70
2023/08/31 03:47:52;;;;;;;3.83;2.15;;;15.90;66.10;;;;;;5018747;28;20030;-71
2023/08/31 03:50:19;;;;;;;7.75;2.63;;;15.80;65.90;;;;;;5014513;28;20522;-70
2023/08/31 03:52:46;;;;;;;4.05;2.45;;;15.80;66.00;;;;;;5010897;28;20117;-71
2023/08/31 03:55:12;;;;;;;3.35;1.80;;;15.80;66.00;;;;;;5018024;28;20108;-71
2023/08/31 03:57:38;;;;;;;4.25;2.13;;;15.90;66.20;;;;;;5021905;28;20152;-70
2023/08/31 04:00:13;;;;;;;4.70;1.92;;;15.80;66.00;;;;;;5016294;28;20581;-71
2023/08/31 04:02:45;;;;;;;3.80;1.90;;;15.80;66.00;;;;;;5016720;28;20037;-70
2023/08/31 04:05:15;;;;;;;2.80;1.80;;;15.90;66.20;;;;;;5016559;28;20470;-70
2023/08/31 04:07:43;;;;;;;5.80;1.80;;;15.90;66.20;;;;;;5018882;28;20555;-70
2023/08/31 04:10:09;;;;;;;5.25;2.10;;;15.90;66.70;;;;;;5020335;28;20037;-71
2023/08/31 04:12:35;;;;;;;3.50;1.98;;;15.90;66.20;;;;;;5017229;28;20238;-71
2023/08/31 04:15:01;;;;;;;3.05;2.08;;;15.90;66.10;;;;;;5022302;28;20061;-71
2023/08/31 04:17:26;;;;;;;5.20;1.73;;;15.90;66.10;;;;;;5013967;28;20022;-70
2023/08/31 04:19:54;;;;;;;7.75;2.58;;;15.90;66.10;;;;;;5016906;28;20057;-70
2023/08/31 04:22:20;;;;;;;5.13;2.40;;;15.90;66.20;;;;;;5015135;28;20037;-70
2023/08/31 04:24:46;;;;;;;5.40;2.17;;;15.90;66.10;;;;;;5017465;28;20492;-70
2023/08/31 04:27:13;;;;;;;4.88;1.27;;;15.90;66.10;;;;;;5013421;28;20037;-70
2023/08/31 04:29:40;;;;;;;2.97;1.45;;;15.90;66.20;;;;;;5016395;28;20137;-70
2023/08/31 04:32:08;;;;;;;4.30;1.77;;;15.90;66.10;;;;;;5020511;28;20425;-70
2023/08/31 04:34:37;;;;;;;3.33;1.85;;;15.90;66.10;;;;;;5017631;28;20525;-70
2023/08/31 04:37:03;;;;;;;4.63;2.00;;;15.90;66.10;;;;;;5016573;28;20029;-71
2023/08/31 04:39:29;;;;;;;6.25;2.22;;;15.90;66.10;;;;;;5015914;28;20026;-71
2023/08/31 04:41:55;;;;;;;2.97;1.42;;;15.90;66.20;;;;;;5017979;28;20397;-71
2023/08/31 04:44:22;;;;;;;7.53;2.08;;;15.90;66.20;;;;;;5014282;28;20026;-71
2023/08/31 04:46:48;;;;;;;4.47;1.90;;;15.90;66.20;;;;;;4996524;28;20033;-71
2023/08/31 04:49:14;;;;;;;6.03;1.70;;;15.90;66.20;;;;;;5014221;28;20476;-72
2023/08/31 04:51:41;;;;;;;3.28;1.75;;;15.90;66.20;;;;;;5017892;28;20145;-70
2023/08/31 04:54:07;;;;;;;3.90;1.65;;;15.90;66.30;;;;;;5018368;28;20501;-70
2023/08/31 04:56:34;;;;;;;4.82;2.53;;;15.90;66.30;;;;;;5013898;28;20025;-69
2023/08/31 04:59:02;;;;;;;5.97;2.00;;;15.90;66.30;;;;;;5013676;28;20485;-71
2023/08/31 05:01:29;;;;;;;4.60;1.83;;;15.90;66.90;;;;;;5010710;28;20034;-71
2023/08/31 05:03:55;;;;;;;5.47;2.00;;;15.90;66.40;;;;;;5013296;28;20044;-70
2023/08/31 05:06:21;;;;;;;4.85;1.73;;;16.00;66.70;;;;;;5012240;28;20037;-70
2023/08/31 05:08:50;;;;;;;3.78;1.70;;;16.00;66.50;;;;;;5021623;28;20027;-70
2023/08/31 05:11:16;;;;;;;3.80;1.85;;;16.00;66.60;;;;;;5014981;28;20038;-70
2023/08/31 05:13:44;;;;;;;5.40;1.88;;;16.00;66.60;;;;;;5014370;28;20084;-70
2023/08/31 05:16:11;;;;;;;4.57;1.92;;;16.00;66.60;;;;;;5012408;28;20362;-71
2023/08/31 05:18:38;;;;;;;3.50;1.63;;;16.00;66.60;;;;;;5016798;28;20385;-72
2023/08/31 05:21:04;;;;;;;4.05;1.75;;;16.00;66.70;;;;;;5013572;28;20351;-70
2023/08/31 05:23:30;;;;;;;5.95;2.17;;;16.00;66.70;;;;;;5012587;28;20505;-71
2023/08/31 05:25:56;;;;;;;4.20;2.13;;;16.00;66.70;;;;;;5017037;28;20036;-71
2023/08/31 05:28:23;;;;;;;3.22;1.60;;;16.00;66.70;;;;;;5006743;28;20041;-72
2023/08/31 05:30:54;;;;;;;4.82;1.63;;;16.00;66.70;;;;;;5020928;28;20044;-71
2023/08/31 05:33:22;;;;;;;2.88;1.60;;;16.00;66.80;;;;;;5027827;28;20056;-73
2023/08/31 05:35:48;;;;;;;2.40;1.60;;;16.00;66.80;;;;;;5026530;28;20120;-72
2023/08/31 05:38:14;;;;;;;2.72;1.52;;;16.00;66.90;;;;;;5024644;28;20127;-72
2023/08/31 05:40:45;;;;;;;3.90;2.08;;;16.10;67.10;;;;;;5027355;28;20091;-72
2023/08/31 05:43:12;;;;;;;3.90;1.70;;;16.10;67.10;;;;;;5018864;28;20473;-71
2023/08/31 05:45:38;;;;;;;3.00;1.50;;;16.10;67.10;;;;;;5011361;28;20045;-72
2023/08/31 05:48:04;;;;;;;7.38;2.47;;;16.10;67.20;;;;;;5009543;28;20084;-71
2023/08/31 05:50:30;;;;;;;4.95;2.47;;;16.00;67.00;;;;;;5013327;28;20057;-72
2023/08/31 05:52:58;;;;;;;3.40;2.30;;;16.10;67.20;;;;;;5008556;28;20038;-71
2023/08/31 05:55:24;;;;;;;4.10;1.80;;;16.00;67.10;;;;;;5010885;28;20061;-71
2023/08/31 05:57:51;;;;;;;2.63;1.90;;;16.00;67.10;;;;;;5013962;28;20050;-71
2023/08/31 06:00:18;;;;;;;3.40;1.75;;;16.10;67.30;;;;;;5008646;28;20032;-71
2023/08/31 06:02:44;;;;;;;6.13;1.88;;;16.10;67.30;;;;;;5014042;28;20065;-71
2023/08/31 06:05:16;;;;;;;3.95;1.77;;;16.10;67.30;;;;;;5010721;28;20025;-71
2023/08/31 06:07:43;;;;;;;3.60;1.70;;;16.10;67.30;;;;;;5003728;28;20049;-71
2023/08/31 06:10:10;;;;;;;4.35;1.40;;;16.10;67.30;;;;;;5015710;28;20049;-72
2023/08/31 06:12:37;;;;;;;2.22;1.38;;;16.10;67.90;;;;;;5011157;28;20273;-71
2023/08/31 06:15:05;;;;;;;2.25;1.77;;;16.10;67.30;;;;;;5009228;28;20034;-71
2023/08/31 06:17:35;;;;;;;3.00;1.42;;;16.10;67.30;;;;;;5002733;28;20042;-70
2023/08/31 06:20:02;;;;;;;3.65;1.17;;;16.20;67.50;;;;;;5016064;28;20219;-72
2023/08/31 06:22:28;;;;;;;4.22;1.27;;;16.20;67.50;;;;;;5017007;28;20033;-71
2023/08/31 06:24:53;;;;;;;3.35;1.40;;;16.30;67.60;;;;;;5014117;28;20033;-72
2023/08/31 06:27:20;;;;;;;2.38;1.58;;;16.30;67.50;;;;;;4994500;28;20057;-71
2023/08/31 06:29:47;;;;;;;2.33;1.45;;;16.30;67.50;;;;;;4999014;28;20061;-71
2023/08/31 06:32:13;;;;;;;5.65;1.10;;;16.40;67.60;;;;;;5013354;28;20342;-70
2023/08/31 06:34:40;;;;;;;3.67;1.10;;;16.40;67.60;;;;;;5009063;28;20045;-71
2023/08/31 06:37:07;;;;;;;2.08;1.25;;;16.40;67.60;;;;;;5016956;28;20041;-71
2023/08/31 06:39:33;;;;;;;1.52;1.20;;;16.40;67.60;;;;;;5021787;28;20056;-73
2023/08/31 06:41:59;;;;;;;3.08;1.10;;;16.40;67.60;;;;;;5018501;28;20037;-71
2023/08/31 06:44:34;;;;;;;2.42;1.20;;;16.50;67.80;;;;;;5009652;28;20025;-71
2023/08/31 06:47:01;;;;;;;4.18;1.80;;;16.50;67.80;;;;;;5017483;28;20409;-71
2023/08/31 06:49:28;;;;;;;3.42;1.42;;;16.50;67.80;;;;;;5017484;28;20374;-71
2023/08/31 06:51:55;;;;;;;2.08;0.80;;;16.50;67.80;;;;;;5007470;28;20828;-72
2023/08/31 06:54:21;;;;;;;1.80;1.05;;;16.60;68.00;;;;;;5013446;28;20354;-71
2023/08/31 06:56:48;;;;;;;3.67;1.00;;;16.60;67.90;;;;;;5013951;28;20120;-71
2023/08/31 06:59:13;;;;;;;2.63;0.95;;;16.60;67.90;;;;;;5015507;28;20203;-71
2023/08/31 07:01:40;;;;;;;2.92;1.38;;;16.60;67.90;;;;;;5014086;28;20448;-71
2023/08/31 07:04:07;;;;;;;0.75;0.75;;;16.60;67.90;;;;;;5004269;28;20030;-70
2023/08/31 07:06:35;;;;;;;1.90;1.05;;;16.70;68.00;;;;;;5008575;28;20033;-71
2023/08/31 07:09:01;;;;;;;0.90;0.85;;;16.70;68.00;;;;;;5009765;28;20425;-71
2023/08/31 07:11:30;;;;;;;2.38;1.40;;;16.70;68.00;;;;;;5014448;28;20033;-72
2023/08/31 07:13:57;;;;;;;2.65;1.52;;;16.70;68.00;;;;;;5008051;28;20186;-71
2023/08/31 07:16:24;;;;;;;1.40;1.13;;;16.80;68.20;;;;;;5011172;28;20029;-72
2023/08/31 07:18:54;;;;;;;3.13;1.30;;;16.80;68.20;;;;;;5007454;28;20041;-71
2023/08/31 07:21:19;;;;;;;5.30;1.30;;;16.80;68.10;;;;;;5013090;28;20043;-73
2023/08/31 07:23:46;;;;;;;4.07;1.17;;;16.90;68.30;;;;;;5011098;28;20439;-72
2023/08/31 07:26:16;;;;;;;4.07;1.33;;;17.00;68.50;;;;;;5008070;28;20481;-71
2023/08/31 07:28:42;;;;;;;4.88;0.90;;;17.00;68.60;;;;;;5011428;28;20050;-71
2023/08/31 07:31:08;;;;;;;8.23;1.30;;;17.10;68.70;;;;;;5013586;28;20492;-71
2023/08/31 07:33:38;;;;;;;5.88;1.30;;;17.30;68.90;;;;;;5008393;28;20056;-70
2023/08/31 07:36:05;;;;;;;4.68;1.55;;;17.40;69.00;;;;;;5015180;28;20567;-71
2023/08/31 07:38:32;;;;;;;18.80;1.80;;;17.50;69.00;;;;;;5012364;28;20482;-69
2023/08/31 07:40:58;;;;;;;4.47;1.30;;;17.50;69.00;;;;;;5013884;28;20037;-72
2023/08/31 07:43:26;;;;;;;1.75;1.02;;;17.60;69.10;;;;;;5008701;28;20033;-70
2023/08/31 07:45:53;;;;;;;3.08;1.30;;;17.70;69.20;;;;;;5018390;28;20041;-70
2023/08/31 07:48:20;;;;;;;2.13;1.17;;;17.80;69.30;;;;;;5011022;28;20029;-71
2023/08/31 07:50:46;;;;;;;7.47;1.20;;;17.90;69.40;;;;;;5009774;28;20498;-70
2023/08/31 07:53:13;;;;;;;5.38;1.20;;;18.00;69.40;;;;;;5011510;28;20042;-70
2023/08/31 07:55:40;;;;;;;1.75;1.05;;;18.00;69.40;;;;;;5010304;28;21333;-70
2023/08/31 07:58:06;;;;;;;3.00;1.15;;;18.10;69.60;;;;;;5001929;28;20557;-70
2023/08/31 08:00:33;;;;;;;3.92;1.50;;;18.10;69.70;;;;;;4999745;28;20120;-70
2023/08/31 08:03:02;;;;;;;4.97;1.10;;;18.10;69.80;;;;;;5009312;28;20022;-70
2023/08/31 08:05:28;;;;;;;2.65;1.33;;;18.10;69.90;;;;;;5015165;28;20187;-70
2023/08/31 08:07:55;;;;;;;3.17;1.50;;;18.10;70.00;;;;;;5012624;28;20132;-70
2023/08/31 08:10:21;;;;;;;3.35;1.23;;;18.20;70.30;;;;;;5013267;28;20173;-70
2023/08/31 08:12:48;;;;;;;1.52;1.00;;;18.10;70.20;;;;;;5007053;28;20133;-70
2023/08/31 08:15:14;;;;;;;6.40;1.73;;;18.10;70.30;;;;;;5007308;28;20389;-70
2023/08/31 08:17:44;;;;;;;5.57;1.60;;;18.10;70.50;;;;;;5003575;28;20110;-70
2023/08/31 08:20:11;;;;;;;3.20;1.67;;;18.20;70.80;;;;;;5012843;28;20029;-70
2023/08/31 08:22:38;;;;;;;1.50;1.27;;;18.20;70.90;;;;;;5001255;28;20041;-70
2023/08/31 08:25:05;;;;;;;1.90;1.17;;;18.30;71.20;;;;;;5013960;28;20042;-71
2023/08/31 08:27:36;;;;;;;3.60;1.10;;;18.30;71.20;;;;;;5000871;28;20038;-71
2023/08/31 08:30:03;;;;;;;5.82;1.50;;;18.30;71.30;;;;;;5010758;28;20129;-70
2023/08/31 08:32:29;;;;;;;2.17;1.15;;;18.40;71.40;;;;;;5001171;28;20057;-70
2023/08/31 08:34:56;;;;;;;2.60;1.35;;;18.50;71.60;;;;;;5013112;28;20068;-70
2023/08/31 08:37:22;;;;;;;2.35;1.08;;;18.60;71.80;;;;;;5012787;28;20549;-70
2023/08/31 08:39:49;;;;;;;3.17;1.52;;;18.60;71.70;;;;;;5004956;28;20048;-70
2023/08/31 08:42:17;;;;;;;2.33;1.02;;;18.70;71.90;;;;;;5007264;28;20521;-70
2023/08/31 08:44:44;;;;;;;2.47;1.20;;;18.80;72.10;;;;;;5008392;28;20037;-70
2023/08/31 08:47:12;;;;;;;3.80;2.05;;;18.80;72.10;;;;;;5012799;28;20053;-71
2023/08/31 08:49:42;;;;;;;1.05;0.90;;;18.90;72.30;;;;;;5011443;28;20576;-70
2023/08/31 08:52:09;;;;;;;1.73;1.20;;;19.00;72.30;;;;;;5013448;28;20025;-70
2023/08/31 08:54:45;;;;;;;2.17;1.13;;;19.10;72.40;;;;;;5009690;28;20676;-71
2023/08/31 08:57:11;;;;;;;1.85;1.00;;;19.10;72.30;;;;;;5012835;28;20034;-70
2023/08/31 08:59:38;;;;;;;3.05;1.50;;;19.20;72.40;;;;;;5012111;28;20091;-70
2023/08/31 09:02:04;;;;;;;2.15;1.20;;;19.30;72.50;;;;;;5006905;28;20065;-70
2023/08/31 09:04:31;;;;;;;2.17;1.63;;;19.40;72.50;;;;;;5015998;28;20036;-70
2023/08/31 09:06:57;;;;;;;1.67;1.10;;;19.50;72.50;;;;;;5002694;28;20092;-70
2023/08/31 09:09:23;;;;;;;4.00;1.25;;;19.50;72.50;;;;;;5010707;28;20116;-70
2023/08/31 09:11:50;;;;;;;2.45;1.17;;;19.50;72.50;;;;;;5005748;28;20105;-70
2023/08/31 09:14:20;;;;;;;4.32;1.48;;;19.50;72.50;;;;;;5007939;28;20041;-70
2023/08/31 09:16:51;;;;;;;2.33;1.25;;;19.60;72.60;;;;;;5011342;28;20071;-69
2023/08/31 09:19:22;;;;;;;1.90;1.35;;;19.60;72.60;;;;;;5009440;28;20045;-70
2023/08/31 09:21:50;;;;;;;1.90;1.17;;;19.60;72.70;;;;;;5007832;28;20088;-71
2023/08/31 09:24:18;;;;;;;2.97;1.60;;;19.70;72.90;;;;;;5016294;28;20371;-70
2023/08/31 09:26:48;;;;;;;3.83;1.90;;;19.70;72.90;;;;;;5018618;28;20033;-70
2023/08/31 09:29:15;;;;;;;1.85;1.10;;;19.80;72.80;;;;;;5011234;28;20522;-70
2023/08/31 09:31:46;;;;;;;2.10;1.08;;;19.80;72.50;;;;;;5002467;28;20108;-71
2023/08/31 09:34:16;;;;;;;3.45;1.20;;;19.80;72.50;;;;;;5001666;28;20404;-70
2023/08/31 09:36:43;;;;;;;3.45;1.30;;;19.80;72.50;;;;;;5013579;28;20065;-70
2023/08/31 09:39:11;;;;;;;3.25;1.42;;;19.80;72.60;;;;;;5001537;28;20792;-70
2023/08/31 09:41:54;;;;;;;3.92;1.65;;;19.80;72.50;;;;;;5011958;28;20292;-71
2023/08/31 09:44:21;;;;;;;1.85;1.45;;;19.80;72.40;;;;;;5006059;28;20156;-70
2023/08/31 09:46:47;;;;;;;2.10;1.20;;;19.70;72.20;;;;;;5005177;28;20107;-71
2023/08/31 09:49:16;;;;;;;2.40;1.40;;;19.70;72.10;;;;;;5012798;28;20034;-70
2023/08/31 09:51:46;;;;;;;2.28;1.40;;;19.70;72.30;;;;;;5008333;28;20544;-70
2023/08/31 09:54:18;;;;;;;3.53;1.60;;;19.70;72.20;;;;;;5007339;28;20129;-70
2023/08/31 09:56:46;;;;;;;3.90;1.48;;;19.70;72.00;;;;;;5007653;28;20072;-72
2023/08/31 09:59:16;;;;;;;2.42;1.17;;;19.60;71.80;;;;;;5001848;28;20041;-72
2023/08/31 10:01:45;;;;;;;3.38;1.30;;;19.60;71.70;;;;;;5000665;28;20030;-71
2023/08/31 10:04:15;;;;;;;3.85;1.30;;;19.60;71.60;;;;;;5001496;28;20054;-70
2023/08/31 10:06:42;;;;;;;2.75;1.33;;;19.60;71.50;;;;;;5007573;28;20057;-70
2023/08/31 10:09:10;;;;;;;3.72;1.30;;;19.60;71.40;;;;;;5007220;28;20366;-70
2023/08/31 10:11:38;;;;;;;2.55;1.20;;;19.50;71.20;;;;;;5001715;28;20478;-70
2023/08/31 10:14:05;;;;;;;2.70;1.58;;;19.60;71.30;;;;;;5001535;28;20057;-70
2023/08/31 10:16:32;;;;;;;3.88;1.33;;;19.60;71.20;;;;;;4998524;28;20064;-70
2023/08/31 10:18:58;;;;;;;4.18;2.25;;;19.70;71.30;;;;;;5002798;28;20054;-70
2023/08/31 10:21:25;;;;;;;3.70;1.60;;;19.70;71.10;;;;;;5009528;28;20512;-70
2023/08/31 10:23:52;;;;;;;2.22;1.13;;;19.80;71.10;;;;;;5013346;28;20038;-70
2023/08/31 10:26:28;;;;;;;2.83;1.55;;;19.80;70.90;;;;;;5004154;28;20505;-70
2023/08/31 10:28:55;;;;;;;3.97;1.27;;;19.90;70.90;;;;;;5004118;28;20041;-70
2023/08/31 10:31:24;;;;;;;1.98;1.30;;;20.00;70.80;;;;;;5000461;28;20324;-70
2023/08/31 10:34:03;;;;;;;3.17;1.20;;;20.00;70.70;;;;;;5008721;28;20045;-70
2023/08/31 10:36:50;;;;;;;3.33;1.45;;;20.10;70.60;;;;;;4999352;28;20466;-71
2023/08/31 10:39:19;;;;;;;2.40;1.20;;;20.10;70.40;;;;;;5000236;28;20026;-70
2023/08/31 10:41:56;;;;;;;3.17;1.35;;;20.20;70.30;;;;;;5006569;28;20037;-70
2023/08/31 10:44:27;;;;;;;1.73;1.27;;;20.20;70.10;;;;;;5011774;28;20142;-69
2023/08/31 10:46:54;;;;;;;5.20;1.20;;;20.30;70.10;;;;;;5015778;28;20037;-69
2023/08/31 10:49:23;;;;;;;2.53;1.30;;;20.40;70.00;;;;;;5006271;28;20080;-70
2023/08/31 10:51:50;;;;;;;2.00;1.58;;;20.40;69.70;;;;;;5004402;28;20057;-70
2023/08/31 10:54:25;;;;;;;1.00;0.85;;;20.50;69.60;;;;;;5002286;28;20067;-69
2023/08/31 10:56:56;;;;;;;3.55;1.23;;;20.50;69.30;;;;;;5016676;28;20046;-69
2023/08/31 10:59:26;;;;;;;2.38;1.45;;;20.50;69.10;;;;;;5003235;28;20124;-69
2023/08/31 11:02:02;;;;;;;2.08;1.08;;;20.60;69.10;;;;;;5001191;28;20030;-70
2023/08/31 11:04:30;;;;;;;8.98;4.88;;;20.60;69.40;;;;;;5013150;28;20041;-70
2023/08/31 11:07:16;;;;;;;17.38;7.53;;;20.70;68.90;;;;;;5016643;28;20288;-69
2023/08/31 11:09:44;;;;;;;8.73;4.50;;;20.70;68.70;;;;;;5010713;28;20045;-69
2023/08/31 11:12:11;;;;;;;5.70;3.50;;;20.70;68.70;;;;;;5010669;28;20455;-69
2023/08/31 11:14:40;;;;;;;5.55;2.72;;;20.70;68.60;;;;;;5007282;28;20038;-69
2023/08/31 11:17:08;;;;;;;5.38;2.70;;;20.80;68.50;;;;;;5004939;28;20356;-69
2023/08/31 11:19:35;;;;;;;4.07;2.03;;;20.80;68.50;;;;;;5002330;28;20061;-69
2023/08/31 11:22:03;;;;;;;4.97;2.78;;;20.80;68.40;;;;;;5013348;28;20038;-69
2023/08/31 11:24:31;;;;;;;4.43;2.25;;;20.80;68.30;;;;;;5005014;28;20504;-69
2023/08/31 11:26:57;;;;;;;3.08;1.77;;;20.90;68.40;;;;;;5011290;28;20188;-69
2023/08/31 11:29:23;;;;;;;4.72;1.60;;;20.90;68.20;;;;;;5015046;28;20035;-69
2023/08/31 11:31:49;;;;;;;4.90;2.03;;;21.00;68.20;;;;;;5018551;28;20038;-70
2023/08/31 11:34:17;;;;;;;4.15;1.63;;;21.10;68.10;;;;;;5011330;28;20056;-70
2023/08/31 11:36:46;;;;;;;3.80;1.45;;;21.20;68.00;;;;;;5007202;28;20150;-69
2023/08/31 11:39:13;;;;;;;3.35;2.15;;;21.30;67.90;;;;;;5004216;28;20172;-69
2023/08/31 11:41:43;;;;;;;4.15;1.30;;;21.40;67.80;;;;;;5013856;28;20149;-70
2023/08/31 11:44:12;;;;;;;3.15;1.48;;;21.40;67.60;;;;;;5010188;28;20465;-70
2023/08/31 11:46:41;;;;;;;2.03;1.20;;;21.40;67.50;;;;;;5016580;28;20432;-69
2023/08/31 11:49:08;;;;;;;5.78;1.75;;;21.40;67.50;;;;;;5011678;28;20423;-70
2023/08/31 11:51:49;;;;;;;3.70;1.20;;;21.40;67.50;;;;;;5015062;28;20057;-70
2023/08/31 11:54:17;;;;;;;2.20;1.40;;;21.40;67.60;;;;;;5006173;28;20057;-70
2023/08/31 11:56:48;;;;;;;2.67;1.38;;;21.30;67.40;;;;;;5015447;28;20509;-70
2023/08/31 11:59:21;;;;;;;3.10;1.55;;;21.40;67.60;;;;;;5015740;28;20479;-69
2023/08/31 12:01:50;;;;;;;2.65;1.55;;;21.40;67.40;;;;;;5017596;28;20064;-69
2023/08/31 12:04:20;;;;;;;2.33;1.52;;;21.50;67.50;;;;;;5012920;28;20038;-70
2023/08/31 12:06:48;;;;;;;2.78;1.13;;;21.50;67.40;;;;;;5009279;28;20078;-70
2023/08/31 12:09:14;;;;;;;2.88;0.90;;;21.50;67.30;;;;;;5010587;28;20034;-69
2023/08/31 12:11:41;;;;;;;1.98;1.20;;;21.50;67.40;;;;;;5001620;28;20029;-70
2023/08/31 12:14:23;;;;;;;4.28;1.50;;;21.50;67.40;;;;;;5009747;28;20052;-70
2023/08/31 12:16:50;;;;;;;7.13;1.67;;;21.50;67.50;;;;;;4999668;28;20038;-70
2023/08/31 12:19:17;;;;;;;4.80;1.10;;;21.60;67.60;;;;;;5004471;28;20533;-70
2023/08/31 12:21:45;;;;;;;2.47;1.30;;;21.60;67.50;;;;;;5007960;28;20038;-69
2023/08/31 12:24:16;;;;;;;1.48;1.10;;;21.70;67.70;;;;;;5014278;28;20532;-69
2023/08/31 12:26:45;;;;;;;1.38;1.17;;;21.70;67.80;;;;;;5009529;28;20156;-69
2023/08/31 12:29:12;;;;;;;3.33;1.25;;;21.70;67.80;;;;;;5011661;28;20588;-70
2023/08/31 12:31:39;;;;;;;2.65;1.13;;;21.70;67.80;;;;;;5004785;28;20530;-70
2023/08/31 12:34:06;;;;;;;2.08;1.10;;;21.70;67.80;;;;;;5012721;28;20041;-69
2023/08/31 12:36:34;;;;;;;3.53;1.33;;;21.80;68.10;;;;;;5014380;28;20115;-69
2023/08/31 12:39:01;;;;;;;3.30;1.50;;;21.80;68.10;;;;;;5014376;28;20049;-70
2023/08/31 12:41:28;;;;;;;3.20;1.13;;;21.90;68.20;;;;;;5018079;28;20465;-69
2023/08/31 12:43:56;;;;;;;2.47;1.20;;;21.90;68.20;;;;;;5007513;28;20037;-70
2023/08/31 12:46:22;;;;;;;1.60;1.00;;;21.90;68.20;;;;;;5010900;28;20379;-70
2023/08/31 12:48:49;;;;;;;2.15;0.98;;;21.90;68.20;;;;;;5008164;28;20572;-69
2023/08/31 12:51:16;;;;;;;3.55;1.30;;;21.90;68.20;;;;;;5016277;28;20133;-70